Airfield :
LOGIN :

Register | Disclaimer

   EN    FR    IT 

 










Legend :    VFR   Marginal VFR   IFR   Intensive IFR   Very Intensive IFR
Visi :
Ceiling :
>= 8 km
>= 3000ft
5 to 8 km
1000 to 3000 ft
1500m to 5 km
500 to 1000 ft
800 to 1500m
200 to 500 ft
< 800m
< 200 ft
Symbols :   Thunderstorms  Fog  Heavy snow  Heavy precipitations  Wind > 20 kt
SIGMETs :     Misc.  Thunderstorms  Icing  Turbulence  Mountain Waves  Volcanic Ashes






- Airport Elevation : 1058 ft
- IATA code : SCN


EDDR - Saarbrücken

CURRENT METAR :
  • 170650Z 25004KT 2000 -SN BR FEW001 OVC003 M02/M02 Q1016 TEMPO 3000

EXPIRED METARs :
  • 170620Z 26005KT 1800 BR FEW001 OVC003 M02/M02 Q1016 TEMPO 3000
  • 170550Z VRB02KT 1400 R09/P2000N BR SCT001 OVC003 M02/M02 Q1015 TEMPO 0800 FZFG
  • 170520Z 09004KT 0700 R09/P2000N -SN FZFG SCT001 OVC002 M02/M02 Q1015 NOSIG
  • 170450Z 10005KT 1300 R09/P2000N BR FEW001 OVC002 M02/M03 Q1015 TEMPO 0700 FZFG
  • 170420Z 10006KT 2800 -SN BR FEW002 BKN003 M02/M03 Q1016

TAF TAF EDDR
Valid from the 17 at 06:00 until the 18 at 06:00 UTC


170500Z 1706/1806 20005KT 6000 BKN005
TEMPO 1706/1720 2500 -SN BR BKN002
PROB40
TEMPO 1706/1709 0700 -FZDZ FZFG
TEMPO 1720/1806 3000 BR BKN004



MET'MAP, your aeronautical weather chart ! - Copyright ORBIFLY December 2007 - Disclaimer

ORBIFLY MET'MAP TEAM :

Programming & Development : Alexandra Zaïnal
Concept & original design : Baudouin d'Aumeries
Assistance for programming : Marc-Olivier Méhu
Technical & hardware support : Manuel Goepfert

Contact : metmap@orbifly.com




SOURCES & CREDITS :

   NOAA